createdAt,value
2023-12-23T00:00:00.464Z,92.5
2023-12-23T00:15:00.379Z,93.0
2023-12-23T00:30:00.406Z,93.0
2023-12-23T00:45:00.371Z,88.5
2023-12-23T01:00:00.457Z,89.0
2023-12-23T01:15:00.486Z,89.0
2023-12-23T01:30:00.890Z,89.0
2023-12-23T01:45:00.408Z,90.5
2023-12-23T02:00:00.544Z,90.5
2023-12-23T02:15:00.507Z,90.5
2023-12-23T02:30:00.450Z,88.5
2023-12-23T02:45:00.376Z,89.5
2023-12-23T03:00:00.468Z,90.5
2023-12-23T03:15:00.469Z,91.0
2023-12-23T03:30:00.412Z,90.0
2023-12-23T03:45:00.528Z,89.5
2023-12-23T04:00:00.430Z,90.5
2023-12-23T04:15:00.400Z,90.5
2023-12-23T04:30:00.559Z,91.0
2023-12-23T04:45:00.396Z,90.5
2023-12-23T05:00:00.409Z,90.0
2023-12-23T05:15:00.495Z,91.5
2023-12-23T05:30:00.646Z,92.0
2023-12-23T05:45:00.360Z,92.0
2023-12-23T06:00:00.489Z,92.0
2023-12-23T06:15:00.471Z,91.5
2023-12-23T06:30:00.431Z,92.5
2023-12-23T06:45:00.493Z,92.0
2023-12-23T07:00:00.368Z,92.5
2023-12-23T07:15:00.412Z,92.5
2023-12-23T07:30:00.595Z,92.5
2023-12-23T07:45:00.444Z,92.5
2023-12-23T08:00:00.332Z,92.5
2023-12-23T08:15:00.457Z,92.5
2023-12-23T08:30:00.463Z,92.5
2023-12-23T08:45:00.496Z,92.5
2023-12-23T09:00:00.612Z,92.0
2023-12-23T09:15:00.548Z,90.0
2023-12-23T09:30:00.435Z,90.5
2023-12-23T09:45:00.995Z,89.5
2023-12-23T10:00:00.444Z,88.5
2023-12-23T10:15:00.454Z,90.0
2023-12-23T10:30:00.496Z,90.0
2023-12-23T10:45:00.515Z,89.0
2023-12-23T11:00:00.635Z,87.5
2023-12-23T11:15:00.473Z,87.5
2023-12-23T11:30:02.016Z,85.5
2023-12-23T11:45:00.438Z,83.5
2023-12-23T12:00:00.605Z,85.5
2023-12-23T12:15:00.369Z,82.5
2023-12-23T12:30:00.653Z,83.0
2023-12-23T12:45:00.388Z,82.5
2023-12-23T13:00:00.863Z,81.5
2023-12-23T13:15:01.373Z,79.0
2023-12-23T13:30:00.461Z,79.0
2023-12-23T13:45:00.436Z,79.5
2023-12-23T14:00:00.430Z,79.0
2023-12-23T14:15:00.466Z,78.5
2023-12-23T14:30:00.435Z,80.5
2023-12-23T14:45:03.726Z,80.5
2023-12-23T15:00:00.384Z,81.5
2023-12-23T15:15:00.504Z,82.0
2023-12-23T15:30:00.451Z,83.0
2023-12-23T15:45:00.332Z,83.5
2023-12-23T16:00:00.684Z,81.0
2023-12-23T16:15:00.378Z,74.0
2023-12-23T16:30:00.460Z,68.5
2023-12-23T16:45:00.530Z,66.5
2023-12-23T17:00:00.562Z,66.0
2023-12-23T17:15:00.903Z,64.5
2023-12-23T17:30:00.481Z,65.0
2023-12-23T17:45:00.452Z,65.5
2023-12-23T18:00:00.561Z,64.5
2023-12-23T18:15:00.390Z,63.0
2023-12-23T18:30:00.649Z,62.5
2023-12-23T18:45:00.380Z,62.5
2023-12-23T19:00:00.383Z,61.0
2023-12-23T19:15:00.446Z,60.0
2023-12-23T19:30:00.464Z,59.5
2023-12-23T19:45:00.632Z,60.5
2023-12-23T20:00:00.640Z,67.0
2023-12-23T20:15:00.403Z,67.0
2023-12-23T20:30:00.803Z,64.0
2023-12-23T20:45:00.435Z,65.0
2023-12-23T21:00:00.370Z,67.5
2023-12-23T21:15:00.430Z,70.5
2023-12-23T21:30:00.530Z,72.0
2023-12-23T21:45:00.473Z,74.5
2023-12-23T22:00:00.716Z,71.0
2023-12-23T22:15:00.403Z,69.5
2023-12-23T22:30:00.496Z,64.5
2023-12-23T22:45:00.385Z,64.5
2023-12-23T23:00:00.472Z,64.0
2023-12-23T23:15:00.525Z,65.0
2023-12-23T23:30:00.335Z,63.5
2023-12-23T23:45:00.388Z,66.5
